Time;durP1;ratioP1;P1;durP2;ratioP2;P2;SDS_P1;SDS_P2;PMS_P1;PMS_P2;Temp;Humidity;BMP_temperature;BMP_pressure;BME280_temperature;BME280_humidity;BME280_pressure;Samples;Min_cycle;Max_cycle;Signal;HPM_P1;HPM_P2
2024/03/20 00:02:21;;;;;;;33.42;22.58;;;;;;;29.66;73.90;101266.28;5043869;28;70679;-30
2024/03/20 00:04:51;;;;;;;47.38;22.10;;;;;;;29.72;74.30;101270.88;5022912;28;66476;-30
2024/03/20 00:07:20;;;;;;;37.22;22.50;;;;;;;29.64;75.28;101260.25;5022682;28;69950;-30
2024/03/20 00:09:49;;;;;;;36.28;21.67;;;;;;;29.75;73.23;101265.06;5017909;28;66632;-30
2024/03/20 00:12:19;;;;;;;30.70;21.00;;;;;;;29.80;72.78;101273.41;5024543;28;70033;-30
2024/03/20 00:14:51;;;;;;;41.08;22.55;;;;;;;29.87;72.96;101270.75;5030680;28;66803;-31
2024/03/20 00:17:19;;;;;;;;;;;;;;;29.73;75.88;101275.28;5035647;28;70078;-30
2024/03/20 00:19:48;;;;;;;43.03;24.98;;;;;;;29.84;72.78;101266.56;5039695;28;66769;-30
2024/03/20 00:22:17;;;;;;;41.05;25.05;;;;;;;29.91;73.25;101279.28;5019781;28;70601;-31
2024/03/20 00:24:46;;;;;;;40.95;24.15;;;;;;;29.87;73.31;101270.75;5032215;28;66218;-29
2024/03/20 00:27:15;;;;;;;42.08;25.63;;;;;;;29.94;73.27;101281.56;5031112;28;69659;-31
2024/03/20 00:29:44;;;;;;;38.83;25.73;;;;;;;29.90;73.45;101269.50;5033195;28;66345;-30
2024/03/20 00:32:13;;;;;;;40.65;26.13;;;;;;;29.96;73.90;101274.09;4993125;28;70116;-31
2024/03/20 00:34:42;;;;;;;41.03;25.65;;;;;;;30.00;73.36;101286.16;4994403;28;65991;-31
2024/03/20 00:37:11;;;;;;;39.13;26.67;;;;;;;30.00;73.79;101291.56;5028805;28;70787;-30
2024/03/20 00:39:40;;;;;;;45.75;26.65;;;;;;;30.00;73.76;101295.09;5024970;28;65476;-30
2024/03/20 00:42:09;;;;;;;39.88;26.10;;;;;;;30.03;73.92;101292.00;5025685;28;70050;-30
2024/03/20 00:44:37;;;;;;;41.90;25.45;;;;;;;30.03;73.90;101291.16;5032903;28;65668;-30
2024/03/20 00:47:06;;;;;;;38.80;26.00;;;;;;;30.07;74.01;101295.13;5033251;28;70055;-31
2024/03/20 00:49:35;;;;;;;48.63;25.77;;;;;;;30.10;74.14;101307.41;5035993;28;66038;-30
2024/03/20 00:52:04;;;;;;;41.38;26.38;;;;;;;30.08;74.59;101307.59;5045062;28;70070;-30
2024/03/20 00:54:33;;;;;;;35.17;25.90;;;;;;;30.13;73.89;101315.13;5043649;28;66301;-31
2024/03/20 00:57:02;;;;;;;38.63;25.52;;;;;;;30.13;74.36;101315.94;5045881;28;69186;-30
2024/03/20 00:59:30;;;;;;;41.97;27.05;;;;;;;30.14;74.58;101325.72;5021060;28;66177;-31
2024/03/20 01:01:59;;;;;;;33.90;25.33;;;;;;;30.14;73.88;101320.31;5020760;28;70056;-31
2024/03/20 01:04:28;;;;;;;35.08;25.13;;;;;;;30.15;74.37;101332.81;5038949;28;65679;-30
2024/03/20 01:06:57;;;;;;;37.45;26.70;;;;;;;30.20;74.63;101335.75;5029216;28;70682;-30
2024/03/20 01:09:26;;;;;;;37.42;27.08;;;;;;;30.23;74.24;101340.78;5024922;28;66739;-31
2024/03/20 01:11:58;;;;;;;41.80;27.10;;;;;;;30.27;74.66;101333.06;5024470;28;70434;-30
2024/03/20 01:14:37;;;;;;;44.72;27.17;;;;;;;30.27;74.39;101331.19;5019626;28;66426;-31
2024/03/20 01:17:05;;;;;;;44.33;27.67;;;;;;;30.29;74.54;101328.28;5021827;28;69737;-32
2024/03/20 01:19:34;;;;;;;35.15;26.73;;;;;;;30.30;74.03;101337.25;5040058;28;65384;-30
2024/03/20 01:22:03;;;;;;;44.38;26.50;;;;;;;30.32;73.83;101343.28;5018640;28;70044;-29
2024/03/20 01:24:32;;;;;;;33.38;25.20;;;;;;;30.32;74.48;101348.69;5024355;28;66335;-30
2024/03/20 01:27:01;;;;;;;39.40;27.27;;;;;;;30.31;74.21;101347.84;5024808;28;70125;-30
2024/03/20 01:29:30;;;;;;;43.55;27.15;;;;;;;30.34;74.12;101352.03;5012366;28;66712;-31
2024/03/20 01:32:00;;;;;;;39.17;27.20;;;;;;;30.34;74.14;101350.16;5040122;28;70573;-30
2024/03/20 01:34:38;;;;;;;36.60;26.83;;;;;;;30.31;74.02;101338.91;5022074;28;66242;-34
2024/03/20 01:37:10;;;;;;;33.22;25.75;;;;;;;30.36;73.65;101344.53;5025086;28;69881;-30
2024/03/20 01:39:39;;;;;;;33.53;26.02;;;;;;;30.36;73.77;101347.25;5030324;28;66552;-31
2024/03/20 01:42:08;;;;;;;36.38;26.15;;;;;;;30.43;73.54;101342.69;5026767;28;70255;-30
2024/03/20 01:44:37;;;;;;;38.55;25.88;;;;;;;30.44;73.21;101338.91;5027218;28;66330;-30
2024/03/20 01:47:06;;;;;;;36.92;26.45;;;;;;;30.42;73.58;101343.69;5024030;28;70688;-30
2024/03/20 01:49:35;;;;;;;32.95;25.73;;;;;;;30.45;72.99;101348.69;5013040;28;66749;-31
2024/03/20 01:52:04;;;;;;;38.88;27.02;;;;;;;30.48;73.56;101356.44;5022647;28;70219;-31
2024/03/20 01:54:33;;;;;;;42.45;26.45;;;;;;;30.50;73.10;101346.22;5023120;28;66521;-31
2024/03/20 01:57:02;;;;;;;33.53;25.58;;;;;;;30.53;73.18;101356.63;5020016;28;69696;-32
2024/03/20 01:59:31;;;;;;;35.85;25.60;;;;;;;30.54;73.07;101352.91;5028454;28;66580;-31
2024/03/20 02:02:00;;;;;;;33.60;26.83;;;;;;;30.57;73.30;101352.47;5009120;28;70430;-32
2024/03/20 02:04:29;;;;;;;29.98;24.98;;;;;;;30.59;72.91;101354.97;5034438;28;66709;-30
2024/03/20 02:06:58;;;;;;;41.05;26.13;;;;;;;30.58;73.07;101354.13;5018817;28;70088;-31
2024/03/20 02:09:27;;;;;;;33.15;25.55;;;;;;;30.62;72.55;101355.41;5026080;28;66549;-31
2024/03/20 02:11:56;;;;;;;31.25;25.10;;;;;;;30.66;72.97;101362.06;5030828;28;70430;-31
2024/03/20 02:14:26;;;;;;;33.70;25.45;;;;;;;30.68;72.95;101361.88;5037276;28;66324;-31
2024/03/20 02:16:54;;;;;;;43.10;26.08;;;;;;;30.69;72.71;101358.94;5036095;28;69635;-30
2024/03/20 02:19:23;;;;;;;29.83;25.25;;;;;;;30.69;72.69;101356.22;5046095;28;65691;-31
2024/03/20 02:21:52;;;;;;;31.75;24.73;;;;;;;30.72;72.60;101363.09;5037557;28;70443;-32
2024/03/20 02:24:21;;;;;;;28.73;24.73;;;;;;;30.77;72.54;101357.06;5038532;28;65973;-32
2024/03/20 02:26:49;;;;;;;33.45;25.85;;;;;;;30.80;72.20;101356.69;5022128;28;70240;-30
2024/03/20 02:29:18;;;;;;;30.92;24.92;;;;;;;30.78;72.06;101356.84;5012567;28;66217;-31
2024/03/20 02:31:47;;;;;;;33.10;24.67;;;;;;;30.84;72.17;101357.91;5021772;28;70966;-33
2024/03/20 02:34:16;;;;;;;29.08;24.70;;;;;;;30.82;72.36;101344.59;5020804;28;65968;-31
2024/03/20 02:36:46;;;;;;;30.50;24.77;;;;;;;30.89;71.85;101355.44;5033664;28;69167;-31
2024/03/20 02:39:15;;;;;;;33.08;25.13;;;;;;;30.91;71.77;101351.47;5010072;28;66913;-32
2024/03/20 02:41:44;;;;;;;31.73;24.38;;;;;;;30.89;72.25;101345.41;5023943;28;70181;-31
2024/03/20 02:44:14;;;;;;;35.08;25.63;;;;;;;30.96;71.96;101345.44;5019367;28;66281;-31
2024/03/20 02:46:43;;;;;;;32.00;25.83;;;;;;;30.99;71.95;101345.00;5006615;28;70028;-32
2024/03/20 02:49:12;;;;;;;30.40;25.02;;;;;;;31.01;71.68;101342.06;5009010;28;66360;-30
2024/03/20 02:51:41;;;;;;;30.75;25.27;;;;;;;31.02;71.97;101350.00;5027933;28;70426;-30
2024/03/20 02:54:10;;;;;;;31.02;25.70;;;;;;;31.06;71.42;101340.41;5019455;28;66635;-31
2024/03/20 02:56:39;;;;;;;32.95;25.67;;;;;;;31.08;71.61;101338.31;5027675;28;70708;-31
2024/03/20 02:59:07;;;;;;;34.38;25.90;;;;;;;31.11;71.58;101340.59;5019155;28;66376;-30
2024/03/20 03:01:37;;;;;;;31.83;25.35;;;;;;;31.14;71.30;101337.47;5017154;28;69255;-31
2024/03/20 03:04:06;;;;;;;28.83;24.35;;;;;;;31.19;71.18;101338.72;5008516;28;66067;-31
2024/03/20 03:06:35;;;;;;;30.50;25.02;;;;;;;31.24;70.95;101330.78;5030311;28;69918;-34
2024/03/20 03:09:08;;;;;;;34.42;25.27;;;;;;;31.15;71.13;101312.06;5023473;28;66693;-31
2024/03/20 03:11:37;;;;;;;33.55;25.20;;;;;;;31.29;71.28;101325.56;5030108;28;70255;-32
2024/03/20 03:14:06;;;;;;;34.70;26.02;;;;;;;31.32;71.04;101315.13;5022352;28;66235;-32
2024/03/20 03:16:35;;;;;;;32.47;25.08;;;;;;;31.35;70.97;101313.88;5018774;28;70611;-32
2024/03/20 03:19:05;;;;;;;29.73;25.00;;;;;;;31.39;70.75;101313.25;5021814;28;65794;-31
2024/03/20 03:21:35;;;;;;;28.33;25.33;;;;;;;31.42;70.50;101303.84;5020949;28;69915;-33
2024/03/20 03:24:05;;;;;;;32.70;24.85;;;;;;;31.47;70.89;101293.22;5023669;28;66531;-31
2024/03/20 03:26:43;;;;;;;30.02;25.08;;;;;;;31.44;70.63;101299.06;5013056;28;69900;-30
2024/03/20 03:29:12;;;;;;;30.73;24.00;;;;;;;31.48;70.55;101289.47;4998554;28;66182;-32
2024/03/20 03:31:41;;;;;;;28.15;23.75;;;;;;;31.56;70.18;101293.78;5016830;28;69637;-31
2024/03/20 03:34:10;;;;;;;27.25;24.27;;;;;;;31.59;70.38;101283.38;5018612;28;66398;-31
2024/03/20 03:36:39;;;;;;;33.55;24.65;;;;;;;31.59;70.38;101280.66;5019435;28;69294;-31
2024/03/20 03:39:08;;;;;;;30.75;24.67;;;;;;;31.66;70.01;101285.22;5006301;28;65300;-30
2024/03/20 03:41:37;;;;;;;27.33;24.13;;;;;;;31.68;70.25;101272.25;5037791;28;70163;-33
2024/03/20 03:44:06;;;;;;;28.73;24.63;;;;;;;31.72;70.16;101278.91;5026398;28;66582;-31
2024/03/20 03:46:35;;;;;;;29.00;24.10;;;;;;;31.71;70.09;101252.84;5021276;28;70695;-31
2024/03/20 03:49:04;;;;;;;28.00;25.00;;;;;;;31.76;70.11;101258.44;5020948;28;65419;-31
2024/03/20 03:51:33;;;;;;;27.00;23.42;;;;;;;31.78;69.94;101253.63;5005810;28;70971;-31
2024/03/20 03:54:02;;;;;;;27.75;23.60;;;;;;;31.79;70.20;101245.28;5018054;28;66787;-31
2024/03/20 03:56:31;;;;;;;29.23;24.00;;;;;;;31.83;69.96;101238.38;5004883;28;69307;-31
2024/03/20 03:59:00;;;;;;;27.45;24.17;;;;;;;31.89;69.98;101236.66;5036433;28;66350;-31
2024/03/20 04:01:28;;;;;;;27.08;23.10;;;;;;;31.92;69.98;101241.69;5046137;28;69628;-31
2024/03/20 04:03:57;;;;;;;29.42;23.35;;;;;;;31.96;69.85;101239.38;5053344;28;66786;-31
2024/03/20 04:06:26;;;;;;;27.85;23.02;;;;;;;31.97;69.73;101239.13;5019629;28;69937;-31
2024/03/20 04:08:55;;;;;;;29.92;23.23;;;;;;;32.00;69.72;101238.69;5033198;28;66357;-31
2024/03/20 04:11:24;;;;;;;25.05;22.40;;;;;;;32.04;69.92;101242.66;5020978;28;70492;-30
2024/03/20 04:13:53;;;;;;;26.65;22.75;;;;;;;32.09;69.46;101235.72;5022967;28;67721;-31
2024/03/20 04:16:22;;;;;;;28.25;23.77;;;;;;;32.11;69.54;101233.63;5029809;28;70765;-31
2024/03/20 04:18:51;;;;;;;30.85;22.85;;;;;;;32.15;69.49;101223.97;5001540;28;65405;-30
2024/03/20 04:21:22;;;;;;;27.98;23.98;;;;;;;32.18;69.31;101216.25;5022441;28;70213;-30
2024/03/20 04:23:52;;;;;;;24.80;21.90;;;;;;;32.19;69.58;101219.78;5053583;28;66526;-31
2024/03/20 04:26:21;;;;;;;25.17;22.10;;;;;;;32.23;69.38;101215.56;5029992;28;70175;-32
2024/03/20 04:28:50;;;;;;;29.65;22.60;;;;;;;32.24;69.40;101200.94;5025591;28;66513;-30
2024/03/20 04:31:19;;;;;;;25.77;22.75;;;;;;;32.27;69.62;101212.19;5029768;28;69551;-31
2024/03/20 04:33:48;;;;;;;24.25;21.75;;;;;;;32.32;69.33;101199.81;5041960;28;66768;-33
2024/03/20 04:36:17;;;;;;;24.88;22.27;;;;;;;32.34;68.97;101187.69;5025747;28;70527;-30
2024/03/20 04:38:46;;;;;;;26.48;22.38;;;;;;;32.37;68.94;101180.97;5031309;28;65877;-31
2024/03/20 04:41:16;;;;;;;33.05;23.30;;;;;;;32.40;69.17;101177.81;5023228;28;69937;-31
2024/03/20 04:43:45;;;;;;;34.42;23.65;;;;;;;32.27;69.10;101148.94;5021999;28;65969;-32
2024/03/20 04:46:13;;;;;;;24.35;21.85;;;;;;;32.45;68.76;101173.38;5048839;28;69140;-31
2024/03/20 04:48:43;;;;;;;26.92;22.50;;;;;;;32.49;68.97;101163.78;5031200;28;65606;-29
2024/03/20 04:51:12;;;;;;;24.63;21.88;;;;;;;32.51;68.84;101154.56;5025210;28;70576;-30
2024/03/20 04:53:41;;;;;;;24.48;21.90;;;;;;;32.44;68.91;101141.84;5023498;28;65422;-31
2024/03/20 04:56:10;;;;;;;25.85;23.02;;;;;;;32.54;68.89;101140.53;5041437;28;70715;-31
2024/03/20 04:58:39;;;;;;;24.33;21.88;;;;;;;32.58;68.35;101139.88;5023146;28;66552;-31
2024/03/20 05:01:09;;;;;;;26.13;23.20;;;;;;;32.65;68.67;101139.78;5033630;28;70747;-31
2024/03/20 05:03:38;;;;;;;25.45;22.88;;;;;;;32.67;68.53;101129.53;5023623;28;65572;-31
2024/03/20 05:06:07;;;;;;;25.48;22.88;;;;;;;32.71;68.64;101128.03;5024815;28;69243;-31
2024/03/20 05:08:36;;;;;;;25.92;22.83;;;;;;;32.69;68.40;101128.25;5030612;28;67074;-31
2024/03/20 05:11:05;;;;;;;28.45;23.42;;;;;;;32.74;68.12;101124.84;5024030;28;68923;-31
2024/03/20 05:13:34;;;;;;;26.30;23.70;;;;;;;32.77;68.27;101120.84;5046129;28;66658;-31
2024/03/20 05:16:08;;;;;;;26.08;23.33;;;;;;;32.75;68.04;101110.19;5015100;28;70602;-31
2024/03/20 05:18:37;;;;;;;28.58;23.45;;;;;;;32.71;68.35;101092.72;5029677;28;66317;-31
2024/03/20 05:21:06;;;;;;;27.08;22.83;;;;;;;32.83;67.86;101109.91;5015674;28;70574;-32
2024/03/20 05:23:35;;;;;;;25.35;22.42;;;;;;;32.88;67.87;101096.47;5024006;28;65663;-30
2024/03/20 05:26:04;;;;;;;28.30;22.83;;;;;;;32.86;68.20;101084.97;5027666;28;69273;-32
2024/03/20 05:28:33;;;;;;;26.05;22.98;;;;;;;32.92;68.15;101073.19;5047535;28;66350;-32
2024/03/20 05:31:02;;;;;;;26.35;22.65;;;;;;;32.96;67.97;101070.00;5023422;28;70611;-31
2024/03/20 05:33:31;;;;;;;25.00;22.45;;;;;;;32.98;68.04;101063.28;4979170;28;65796;-31
2024/03/20 05:36:00;;;;;;;24.98;22.35;;;;;;;33.01;67.91;101064.75;5022112;28;70736;-31
2024/03/20 05:38:29;;;;;;;28.08;23.17;;;;;;;33.03;67.80;101058.03;5032612;28;66537;-30
2024/03/20 05:40:59;;;;;;;24.67;22.27;;;;;;;33.07;67.53;101053.81;5030404;28;70209;-31
2024/03/20 05:43:28;;;;;;;24.70;22.15;;;;;;;33.11;67.72;101059.59;5026823;28;65529;-32
2024/03/20 05:45:57;;;;;;;24.83;22.20;;;;;;;33.13;67.75;101049.34;5036503;28;69893;-31
2024/03/20 05:48:26;;;;;;;25.40;22.23;;;;;;;33.03;67.79;101013.72;5025338;28;65420;-32
2024/03/20 05:50:57;;;;;;;24.80;22.08;;;;;;;33.16;67.71;101035.28;5018671;28;69917;-31
2024/03/20 05:53:26;;;;;;;26.48;22.27;;;;;;;33.21;67.46;101043.56;5021865;28;66452;-32
2024/03/20 05:55:55;;;;;;;25.17;21.30;;;;;;;33.23;67.69;101022.38;5043259;28;69599;-32
2024/03/20 05:58:24;;;;;;;23.88;21.48;;;;;;;33.27;67.43;101020.06;5024854;28;65587;-31
2024/03/20 06:00:53;;;;;;;25.05;22.42;;;;;;;33.28;67.41;101017.09;5003785;28;69926;-31
2024/03/20 06:03:23;;;;;;;24.67;22.10;;;;;;;33.33;67.19;101014.50;5028766;28;66290;-35
2024/03/20 06:05:51;;;;;;;24.42;21.90;;;;;;;33.37;67.43;101010.25;5043196;28;70155;-32
2024/03/20 06:08:21;;;;;;;27.52;22.83;;;;;;;33.41;67.44;101004.34;4998796;28;66386;-32
2024/03/20 06:10:51;;;;;;;24.50;21.70;;;;;;;33.45;67.26;101000.09;5029225;28;70100;-33
2024/03/20 06:13:21;;;;;;;23.35;20.88;;;;;;;33.47;67.22;100981.66;5029575;28;66121;-33
2024/03/20 06:15:50;;;;;;;23.70;21.30;;;;;;;33.48;66.80;100981.41;5032158;28;71364;-32
2024/03/20 06:18:19;;;;;;;23.65;20.98;;;;;;;33.53;66.94;100975.28;5031612;28;66340;-31
2024/03/20 06:20:50;;;;;;;23.30;21.13;;;;;;;33.56;66.74;100969.38;5052649;28;70460;-32
2024/03/20 06:23:19;;;;;;;22.33;20.17;;;;;;;33.61;66.83;100955.91;5007072;28;66038;-32
2024/03/20 06:25:48;;;;;;;23.90;21.40;;;;;;;33.67;67.06;100954.13;5019515;28;70216;-31
2024/03/20 06:28:17;;;;;;;23.15;20.77;;;;;;;33.68;66.64;100956.59;5023857;28;66250;-32
2024/03/20 06:30:46;;;;;;;22.83;19.77;;;;;;;33.67;66.95;100940.53;5004978;28;70554;-34
2024/03/20 06:33:15;;;;;;;22.95;20.80;;;;;;;33.69;66.53;100931.06;5019194;28;66203;-30
2024/03/20 06:35:45;;;;;;;22.58;20.27;;;;;;;33.76;66.46;100937.19;5035314;28;70036;-31
2024/03/20 06:38:15;;;;;;;23.35;21.00;;;;;;;33.83;66.47;100936.25;5022373;28;65806;-31
2024/03/20 06:40:47;;;;;;;22.13;20.13;;;;;;;33.86;66.30;100936.59;5014835;28;70050;-30
2024/03/20 06:43:16;;;;;;;22.30;20.20;;;;;;;33.88;66.33;100928.19;5034503;28;66640;-31
2024/03/20 06:45:49;;;;;;;22.60;20.17;;;;;;;33.94;66.21;100927.25;5021233;28;70327;-31
2024/03/20 06:48:18;;;;;;;21.77;19.48;;;;;;;33.93;65.89;100911.97;5026660;28;66147;-34
2024/03/20 06:50:48;;;;;;;21.02;19.23;;;;;;;34.01;66.43;100914.31;5021901;28;70644;-30
2024/03/20 06:53:18;;;;;;;22.02;19.80;;;;;;;34.03;66.22;100904.00;5030062;28;66639;-31
2024/03/20 06:55:50;;;;;;;20.55;18.80;;;;;;;34.07;66.36;100904.38;5031278;28;70491;-33
2024/03/20 06:58:20;;;;;;;24.30;19.70;;;;;;;34.10;65.99;100898.44;4987522;28;66288;-31
2024/03/20 07:00:50;;;;;;;20.53;18.33;;;;;;;34.07;66.06;100888.88;5041220;28;71416;-32
2024/03/20 07:03:19;;;;;;;21.48;19.45;;;;;;;34.20;65.62;100896.75;5026365;28;65346;-32
2024/03/20 07:05:49;;;;;;;20.88;18.88;;;;;;;34.23;65.98;100888.09;5034243;28;69997;-36
2024/03/20 07:08:18;;;;;;;22.27;20.02;;;;;;;34.26;66.04;100870.44;5027269;28;66705;-32
2024/03/20 07:10:47;;;;;;;20.75;18.85;;;;;;;34.27;65.57;100880.28;5044042;28;70387;-31
2024/03/20 07:13:16;;;;;;;20.77;18.48;;;;;;;34.37;65.95;100877.75;5031489;28;66613;-32
2024/03/20 07:15:46;;;;;;;20.70;18.67;;;;;;;34.41;65.46;100872.66;4998305;28;70404;-32
2024/03/20 07:18:14;;;;;;;21.73;18.83;;;;;;;34.42;65.85;100877.00;5019730;28;66133;-33
2024/03/20 07:20:44;;;;;;;20.33;18.52;;;;;;;34.50;65.48;100887.50;5001216;28;69991;-32
2024/03/20 07:23:13;;;;;;;19.95;18.05;;;;;;;34.53;65.53;100881.56;5026389;28;65760;-32
2024/03/20 07:25:42;;;;;;;20.98;18.38;;;;;;;34.59;65.28;100872.44;5024434;28;70201;-31
2024/03/20 07:28:12;;;;;;;20.15;18.08;;;;;;;34.64;65.51;100866.28;5032780;28;66439;-31
2024/03/20 07:30:41;;;;;;;19.20;17.50;;;;;;;34.67;65.40;100865.78;5040291;28;70449;-31
2024/03/20 07:33:10;;;;;;;19.25;17.42;;;;;;;34.72;65.32;100862.31;5023384;28;66420;-35
2024/03/20 07:35:46;;;;;;;20.10;18.23;;;;;;;34.75;65.02;100865.38;5020324;28;70948;-31
2024/03/20 07:38:16;;;;;;;20.27;18.05;;;;;;;34.80;65.39;100859.16;5017533;28;66699;-31
2024/03/20 07:40:50;;;;;;;19.15;17.20;;;;;;;34.85;64.92;100868.28;5018498;28;69574;-32
2024/03/20 07:43:20;;;;;;;19.10;17.27;;;;;;;34.86;65.63;100852.72;5019893;28;66438;-33
2024/03/20 07:45:50;;;;;;;18.70;16.90;;;;;;;34.92;64.80;100863.47;5019964;28;70041;-32
2024/03/20 07:48:18;;;;;;;19.00;16.60;;;;;;;34.98;64.93;100849.91;5017012;28;66267;-32
2024/03/20 07:50:52;;;;;;;17.73;16.23;;;;;;;35.02;64.94;100851.91;5023375;28;70555;-31
2024/03/20 07:53:22;;;;;;;17.60;15.98;;;;;;;35.04;65.36;100860.63;5028709;28;66309;-32
2024/03/20 07:55:50;;;;;;;18.38;16.55;;;;;;;35.10;65.09;100848.78;5024093;28;69903;-32
2024/03/20 07:58:19;;;;;;;18.95;16.85;;;;;;;35.14;64.72;100849.91;4989943;28;65946;-32
2024/03/20 08:00:48;;;;;;;17.85;16.15;;;;;;;35.19;64.93;100846.47;5044468;28;70623;-32
2024/03/20 08:03:19;;;;;;;16.75;15.32;;;;;;;35.22;65.37;100839.69;5009852;28;65499;-32
2024/03/20 08:05:48;;;;;;;17.63;16.13;;;;;;;35.27;65.31;100842.44;5018144;28;70207;-32
2024/03/20 08:08:18;;;;;;;17.17;15.80;;;;;;;35.34;65.20;100843.09;5043415;28;66288;-33
2024/03/20 08:10:48;;;;;;;18.80;16.65;;;;;;;35.39;64.85;100834.19;5017392;28;70286;-37
2024/03/20 08:13:17;;;;;;;17.65;15.80;;;;;;;35.44;65.05;100826.88;5005240;28;66355;-32
2024/03/20 08:15:46;;;;;;;18.23;15.50;;;;;;;35.48;64.74;100833.47;5022509;28;70138;-33
2024/03/20 08:18:16;;;;;;;18.20;16.27;;;;;;;35.54;65.07;100837.09;5017122;28;66489;-33
2024/03/20 08:20:45;;;;;;;16.63;14.98;;;;;;;35.55;64.52;100823.22;5020883;28;70287;-32
2024/03/20 08:23:14;;;;;;;17.13;15.45;;;;;;;35.65;65.10;100825.25;5022576;28;66668;-32
2024/03/20 08:25:43;;;;;;;18.58;15.32;;;;;;;35.68;65.02;100827.47;5043889;28;69726;-32
2024/03/20 08:28:11;;;;;;;17.05;15.32;;;;;;;35.74;64.38;100820.16;5037307;28;65668;-32
2024/03/20 08:30:40;;;;;;;16.30;14.75;;;;;;;35.79;64.84;100831.97;5018147;28;70336;-34
2024/03/20 08:33:09;;;;;;;15.55;14.15;;;;;;;35.83;64.17;100826.84;5038524;28;65463;-32
2024/03/20 08:35:38;;;;;;;15.05;13.65;;;;;;;35.88;64.97;100820.59;5020551;28;70514;-32
2024/03/20 08:38:07;;;;;;;16.58;14.93;;;;;;;35.93;64.16;100824.22;5052549;28;66586;-32
2024/03/20 08:40:37;;;;;;;15.13;13.63;;;;;;;35.94;64.01;100814.97;5022424;28;70189;-33
2024/03/20 08:43:06;;;;;;;15.15;13.57;;;;;;;36.02;64.39;100833.59;5035218;28;66549;-31
2024/03/20 08:45:36;;;;;;;15.10;13.75;;;;;;;36.10;64.57;100828.78;5031619;28;70691;-35
2024/03/20 08:48:06;;;;;;;15.85;14.23;;;;;;;36.13;64.02;100823.63;5023292;28;66146;-30
2024/03/20 08:50:40;;;;;;;16.45;14.43;;;;;;;35.97;64.03;100802.69;5035751;28;69826;-32
2024/03/20 08:53:09;;;;;;;14.93;13.73;;;;;;;36.24;63.87;100819.09;5038718;28;66735;-31
2024/03/20 08:55:40;;;;;;;15.05;13.45;;;;;;;36.28;63.79;100824.88;5036585;28;70589;-33
2024/03/20 08:58:09;;;;;;;15.52;14.13;;;;;;;36.28;64.37;100816.69;5024602;28;66413;-33
2024/03/20 09:00:38;;;;;;;14.85;13.43;;;;;;;36.33;64.48;100814.81;5016154;28;70625;-32
2024/03/20 09:03:07;;;;;;;14.93;13.57;;;;;;;36.41;64.39;100814.34;5007431;28;66144;-32
2024/03/20 09:05:39;;;;;;;15.50;14.05;;;;;;;36.45;64.12;100814.66;5004847;28;70280;-32
2024/03/20 09:08:08;;;;;;;15.30;13.23;;;;;;;36.50;63.55;100824.78;5022338;28;66831;-32
2024/03/20 09:10:37;;;;;;;14.90;13.38;;;;;;;36.54;63.89;100817.75;5029348;28;70490;-32
2024/03/20 09:13:07;;;;;;;14.50;13.23;;;;;;;36.57;63.91;100817.22;5018078;28;66773;-33
2024/03/20 09:15:39;;;;;;;17.33;13.00;;;;;;;36.59;63.59;100826.00;5033108;28;69629;-34
2024/03/20 09:18:08;;;;;;;15.63;14.05;;;;;;;36.56;63.35;100826.53;5008776;28;66327;-32
2024/03/20 09:20:40;;;;;;;27.92;14.18;;;;;;;36.53;64.23;100821.56;5019757;28;70770;-33
2024/03/20 09:23:09;;;;;;;23.50;14.18;;;;;;;36.53;64.24;100822.41;5019139;28;65224;-33
2024/03/20 09:25:38;;;;;;;27.30;14.10;;;;;;;36.62;64.49;100825.47;5032877;28;70545;-32
2024/03/20 09:28:07;;;;;;;15.48;14.18;;;;;;;36.60;63.96;100833.09;5037470;28;66645;-31
2024/03/20 09:30:37;;;;;;;15.27;13.80;;;;;;;36.55;64.20;100830.31;5023463;28;71084;-36
2024/03/20 09:33:06;;;;;;;18.98;14.27;;;;;;;36.58;64.43;100835.25;5027088;28;65675;-32
2024/03/20 09:35:35;;;;;;;23.85;14.63;;;;;;;36.58;63.68;100840.72;5020411;28;70180;-31
2024/03/20 09:38:04;;;;;;;21.13;15.60;;;;;;;36.58;64.02;100838.00;5020245;28;66893;-32
2024/03/20 09:40:33;;;;;;;26.92;14.38;;;;;;;36.57;63.69;100844.56;5017470;28;69952;-31
2024/03/20 09:43:05;;;;;;;17.30;14.27;;;;;;;36.46;64.19;100811.63;5049391;28;66069;-33
2024/03/20 09:45:35;;;;;;;25.88;14.55;;;;;;;36.62;64.10;100836.41;5019737;28;71107;-33
2024/03/20 09:48:04;;;;;;;34.15;15.27;;;;;;;36.60;64.51;100833.09;5037087;28;66166;-33
2024/03/20 09:50:35;;;;;;;31.10;14.93;;;;;;;36.65;64.08;100847.63;5018124;28;70088;-33
2024/03/20 09:53:06;;;;;;;27.63;15.35;;;;;;;36.42;63.70;100820.63;5030835;28;66589;-32
2024/03/20 09:55:40;;;;;;;28.55;16.27;;;;;;;36.69;64.38;100858.84;5019543;28;69335;-33
2024/03/20 09:58:15;;;;;;;26.42;15.55;;;;;;;36.57;64.14;100839.09;5022461;28;66272;-32
2024/03/20 10:00:45;;;;;;;23.98;16.80;;;;;;;36.50;63.85;100832.97;5022534;28;70341;-32
2024/03/20 10:03:15;;;;;;;36.60;17.77;;;;;;;36.61;63.46;100864.78;5019571;28;65445;-33
2024/03/20 10:05:45;;;;;;;44.70;17.20;;;;;;;36.65;64.13;100857.75;5021471;28;68897;-32
2024/03/20 10:08:15;;;;;;;29.48;15.70;;;;;;;36.44;63.38;100841.16;5040298;28;66366;-39
2024/03/20 10:10:45;;;;;;;35.60;16.23;;;;;;;36.69;63.94;100875.25;5022671;28;69692;-32
2024/03/20 10:13:14;;;;;;;28.00;16.15;;;;;;;36.65;63.78;100876.88;5037738;28;66627;-34
2024/03/20 10:15:43;;;;;;;34.15;15.77;;;;;;;36.66;63.81;100873.03;5027587;28;70047;-32
2024/03/20 10:18:16;;;;;;;30.40;15.95;;;;;;;36.70;63.76;100882.38;5030442;28;66119;-33
2024/03/20 10:20:48;;;;;;;33.20;16.85;;;;;;;36.66;63.48;100876.63;5047119;28;69488;-33
2024/03/20 10:23:17;;;;;;;35.83;14.98;;;;;;;36.56;64.22;100871.06;5047528;28;65660;-33
2024/03/20 10:25:49;;;;;;;29.67;15.15;;;;;;;36.62;63.62;100875.47;5008075;28;70549;-32
2024/03/20 10:28:21;;;;;;;36.92;16.13;;;;;;;36.57;64.38;100882.81;5027726;28;65911;-32
2024/03/20 10:30:52;;;;;;;32.45;16.48;;;;;;;36.41;64.07;100855.34;4978705;28;68530;-33
2024/03/20 10:33:21;;;;;;;32.90;16.45;;;;;;;36.61;64.34;100895.69;5029426;28;67322;-33
2024/03/20 10:35:53;;;;;;;28.58;17.10;;;;;;;36.53;64.36;100887.13;5038273;28;69911;-31
2024/03/20 10:38:23;;;;;;;34.40;16.38;;;;;;;36.53;63.98;100904.38;5036976;28;65555;-32
2024/03/20 10:40:52;;;;;;;24.73;15.75;;;;;;;36.51;64.18;100903.75;5035819;28;69618;-33
2024/03/20 10:43:23;;;;;;;44.60;17.65;;;;;;;36.53;64.47;100904.38;5031703;28;66296;-31
2024/03/20 10:45:53;;;;;;;35.70;17.67;;;;;;;36.51;64.44;100909.22;5028567;28;70438;-33
2024/03/20 10:48:24;;;;;;;37.30;17.65;;;;;;;36.46;64.88;100910.00;5003859;28;65431;-32
2024/03/20 10:50:54;;;;;;;38.67;17.25;;;;;;;36.40;64.19;100911.03;5011955;28;69483;-39
2024/03/20 10:53:25;;;;;;;33.80;16.95;;;;;;;36.40;64.43;100908.28;5018455;28;66057;-33
2024/03/20 10:55:54;;;;;;;38.42;17.23;;;;;;;36.38;64.53;100912.38;5024037;28;70450;-34
2024/03/20 10:58:25;;;;;;;32.22;17.73;;;;;;;36.25;64.48;100910.88;5026290;28;65626;-32
2024/03/20 11:00:57;;;;;;;41.85;18.58;;;;;;;36.30;64.55;100915.56;5022698;28;70143;-31
2024/03/20 11:03:50;;;;;;;34.25;17.75;;;;;;;36.13;65.20;100915.66;5023417;28;65154;-31
2024/03/20 11:06:28;;;;;;;28.60;17.63;;;;;;;36.14;64.76;100917.31;5018560;28;70223;-33
2024/03/20 11:08:59;;;;;;;32.13;17.48;;;;;;;35.99;64.58;100890.59;5023233;28;66538;-33
2024/03/20 11:11:31;;;;;;;33.47;17.77;;;;;;;36.12;65.02;100925.75;5023130;28;70286;-32
2024/03/20 11:14:04;;;;;;;30.45;18.10;;;;;;;35.87;65.59;100896.22;5025974;28;66353;-33
2024/03/20 11:16:33;;;;;;;31.23;18.15;;;;;;;36.01;65.03;100924.75;5022563;28;70480;-32
2024/03/20 11:19:06;;;;;;;50.08;18.83;;;;;;;36.03;64.79;100935.44;5029280;28;66672;-32
2024/03/20 11:21:38;;;;;;;35.20;18.20;;;;;;;35.96;64.60;100932.88;5020920;28;69757;-34